Time;durP1;ratioP1;P1;durP2;ratioP2;P2;SDS_P1;SDS_P2;PMS_P1;PMS_P2;Temp;Humidity;BMP_temperature;BMP_pressure;BME280_temperature;BME280_humidity;BME280_pressure;Samples;Min_cycle;Max_cycle;Signal;HPM_P1;HPM_P2
2023/05/19 00:00:30;;;;;;;13.57;4.78;;;;;;;11.82;59.15;100823.66;5021590;28;20029;-81
2023/05/19 00:02:55;;;;;;;9.75;4.07;;;;;;;11.78;59.59;100820.59;5022120;28;20037;-82
2023/05/19 00:05:21;;;;;;;10.65;4.90;;;;;;;11.71;59.72;100821.84;5021697;28;20029;-82
2023/05/19 00:07:50;;;;;;;15.15;5.13;;;;;;;11.72;59.71;100821.59;5021785;28;20116;-81
2023/05/19 00:10:16;;;;;;;11.15;4.28;;;;;;;11.72;59.68;100815.28;5021831;28;20064;-82
2023/05/19 00:12:42;;;;;;;11.15;5.07;;;;;;;11.75;59.48;100820.28;5020838;28;20467;-81
2023/05/19 00:15:09;;;;;;;15.48;4.75;;;;;;;11.67;60.27;100818.78;5020305;28;20132;-82
2023/05/19 00:17:37;;;;;;;11.23;5.55;;;;;;;11.63;59.95;100817.63;5021532;28;20038;-82
2023/05/19 00:20:06;;;;;;;15.32;4.95;;;;;;;11.67;60.08;100816.03;5020591;28;20052;-82
2023/05/19 00:22:31;;;;;;;15.48;6.15;;;;;;;11.68;59.74;100810.34;5021017;28;20037;-82
2023/05/19 00:24:56;;;;;;;12.85;5.05;;;;;;;11.62;59.45;100815.94;5021699;28;20044;-82
2023/05/19 00:27:22;;;;;;;10.50;4.53;;;;;;;11.62;60.15;100810.47;5023298;28;20124;-82
2023/05/19 00:29:47;;;;;;;12.23;5.33;;;;;;;11.55;59.68;100816.91;5025000;28;20305;-82
2023/05/19 00:32:12;;;;;;;18.10;5.67;;;;;;;11.58;60.40;100814.78;5024862;28;20632;-82
2023/05/19 00:34:38;;;;;;;14.32;4.72;;;;;;;11.52;60.18;100814.69;5024759;28;20329;-82
2023/05/19 00:37:03;;;;;;;11.60;4.93;;;;;;;11.39;60.75;100817.75;5025051;28;20041;-82
2023/05/19 00:39:28;;;;;;;14.27;6.43;;;;;;;11.23;61.72;100819.34;5024463;28;20041;-82
2023/05/19 00:41:53;;;;;;;19.13;6.67;;;;;;;11.15;61.87;100812.34;5025012;28;20030;-83
2023/05/19 00:44:19;;;;;;;20.00;6.85;;;;;;;11.14;61.85;100821.63;5024770;28;21139;-83
2023/05/19 00:46:44;;;;;;;15.13;5.50;;;;;;;10.96;62.51;100818.00;5025047;28;20068;-82
2023/05/19 00:49:10;;;;;;;15.70;5.47;;;;;;;10.95;62.62;100819.06;5024496;28;20471;-82
2023/05/19 00:51:36;;;;;;;35.05;8.35;;;;;;;10.87;63.09;100823.00;5025094;28;20037;-82
2023/05/19 00:54:01;;;;;;;15.90;5.78;;;;;;;10.91;62.70;100818.72;5024851;28;20029;-81
2023/05/19 00:56:26;;;;;;;10.95;5.88;;;;;;;10.79;63.33;100820.66;5024786;28;20033;-82
2023/05/19 00:58:53;;;;;;;13.68;5.22;;;;;;;10.71;63.59;100816.38;5024193;28;20133;-82
2023/05/19 01:01:20;;;;;;;16.10;6.13;;;;;;;10.72;63.76;100816.16;5024145;28;20036;-82
2023/05/19 01:03:46;;;;;;;12.88;4.97;;;;;;;10.88;63.22;100812.91;5024973;28;20036;-82
2023/05/19 01:06:12;;;;;;;11.30;4.43;;;;;;;10.94;63.18;100817.41;5024210;28;20025;-82
2023/05/19 01:08:37;;;;;;;15.32;5.35;;;;;;;10.88;63.31;100816.50;5024612;28;20424;-82
2023/05/19 01:11:04;;;;;;;11.15;5.55;;;;;;;11.03;62.64;100813.22;5024363;28;20033;-82
2023/05/19 01:13:30;;;;;;;15.68;5.15;;;;;;;10.97;63.20;100816.91;5024609;28;20029;-83
2023/05/19 01:16:31;;;;;;;13.68;5.93;;;;;;;10.95;63.17;100808.97;5024664;28;20052;-82
2023/05/19 01:19:34;;;;;;;14.88;5.80;;;;;;;11.01;62.52;100811.81;5025016;28;20100;-82
2023/05/19 01:22:22;;;;;;;12.48;5.50;;;;;;;11.02;62.61;100808.84;5024730;28;20049;-82
2023/05/19 01:25:21;;;;;;;15.15;6.07;;;;;;;10.89;63.26;100809.09;5025027;28;20061;-82
2023/05/19 01:28:14;;;;;;;18.77;6.03;;;;;;;10.89;63.56;100804.50;5014780;28;20128;-82
2023/05/19 01:30:42;;;;;;;16.83;6.93;;;;;;;10.86;63.60;100805.78;5024657;28;20083;-82
2023/05/19 01:33:13;;;;;;;15.90;5.97;;;;;;;10.82;64.01;100809.25;5024662;28;20103;-82
2023/05/19 01:35:39;;;;;;;11.93;6.20;;;;;;;10.81;64.59;100805.69;5024407;28;20120;-82
2023/05/19 01:38:07;;;;;;;14.15;5.97;;;;;;;10.84;64.07;100802.47;5023146;28;20053;-81
2023/05/19 01:40:33;;;;;;;14.32;5.97;;;;;;;10.90;63.91;100805.31;5024258;28;20045;-83
2023/05/19 01:43:00;;;;;;;12.38;6.30;;;;;;;10.95;63.68;100808.16;5024379;28;20036;-83
2023/05/19 01:45:31;;;;;;;16.60;5.45;;;;;;;10.94;63.70;100806.50;5023841;28;20030;-83
2023/05/19 01:47:59;;;;;;;12.13;5.20;;;;;;;10.99;63.85;100801.13;5023990;28;20030;-83
2023/05/19 01:50:25;;;;;;;10.73;5.70;;;;;;;11.05;63.37;100804.78;5023462;28;20037;-82
2023/05/19 01:52:50;;;;;;;16.58;5.28;;;;;;;11.03;63.56;100813.22;5023263;28;20084;-83
2023/05/19 01:55:16;;;;;;;11.70;5.95;;;;;;;11.11;63.19;100811.16;5023121;28;20041;-82
2023/05/19 01:57:56;;;;;;;18.73;7.07;;;;;;;11.04;63.51;100808.59;5023475;28;20072;-82
2023/05/19 02:00:21;;;;;;;18.67;6.97;;;;;;;11.05;63.71;100807.53;5023147;28;20045;-84
2023/05/19 02:02:49;;;;;;;16.30;6.53;;;;;;;11.17;63.24;100812.94;5023330;28;20029;-83
2023/05/19 02:05:28;;;;;;;16.48;6.70;;;;;;;10.95;63.66;100822.63;5022788;28;20095;-84
2023/05/19 02:08:19;;;;;;;16.17;7.38;;;;;;;10.84;64.00;100821.56;5022834;28;20035;-83
2023/05/19 02:10:51;;;;;;;10.80;6.00;;;;;;;10.83;64.03;100822.66;5023705;28;20068;-83
2023/05/19 02:13:20;;;;;;;13.73;7.28;;;;;;;10.81;64.00;100830.25;5023108;28;20067;-83
2023/05/19 02:15:47;;;;;;;16.55;7.53;;;;;;;10.75;64.32;100820.31;5023178;28;20044;-82
2023/05/19 02:18:16;;;;;;;13.93;6.53;;;;;;;10.67;64.62;100821.50;5022441;28;20040;-83
2023/05/19 02:20:42;;;;;;;15.70;7.03;;;;;;;10.66;64.83;100822.56;5022741;28;20033;-83
2023/05/19 02:23:10;;;;;;;16.30;7.38;;;;;;;10.58;64.84;100818.31;5022539;28;20034;-83
2023/05/19 02:25:35;;;;;;;14.10;6.32;;;;;;;10.55;65.14;100818.78;5022985;28;20136;-83
2023/05/19 02:28:01;;;;;;;15.13;6.63;;;;;;;10.52;65.44;100821.97;5022695;28;20033;-84
2023/05/19 02:30:26;;;;;;;11.45;6.35;;;;;;;10.47;65.74;100828.13;5023068;28;20748;-79
2023/05/19 02:32:54;;;;;;;27.42;8.02;;;;;;;10.42;65.49;100821.72;5037250;28;20037;-80
2023/05/19 02:35:20;;;;;;;15.02;5.43;;;;;;;10.33;65.84;100816.63;5021717;28;20037;-80
2023/05/19 02:37:45;;;;;;;15.80;7.40;;;;;;;10.37;65.68;100820.53;5022254;28;20040;-79
2023/05/19 02:40:10;;;;;;;22.77;8.00;;;;;;;10.31;65.75;100804.31;5021253;28;20048;-79
2023/05/19 02:42:36;;;;;;;25.55;9.32;;;;;;;10.43;65.23;100804.31;5022039;28;20282;-79
2023/05/19 02:45:01;;;;;;;17.00;6.53;;;;;;;10.43;64.67;100813.31;5021941;28;20033;-80
2023/05/19 02:47:26;;;;;;;12.27;6.37;;;;;;;10.38;64.84;100816.75;5022614;28;20312;-79
2023/05/19 02:49:51;;;;;;;22.03;7.03;;;;;;;10.31;65.44;100813.34;5020940;28;20283;-81
2023/05/19 02:52:16;;;;;;;13.53;7.33;;;;;;;10.27;65.53;100812.13;5021395;28;21334;-79
2023/05/19 02:54:42;;;;;;;13.23;5.93;;;;;;;10.13;66.03;100815.09;5021511;28;20465;-79
2023/05/19 02:57:07;;;;;;;13.30;6.15;;;;;;;10.04;66.36;100814.63;5021383;28;20250;-80
2023/05/19 02:59:32;;;;;;;13.37;6.20;;;;;;;10.00;66.63;100810.69;5021435;28;20041;-80
2023/05/19 03:02:00;;;;;;;19.38;7.25;;;;;;;10.12;66.16;100810.72;5021614;28;20281;-80
2023/05/19 03:04:25;;;;;;;14.73;7.43;;;;;;;10.06;66.70;100802.63;5021391;28;20550;-80
2023/05/19 03:06:50;;;;;;;12.10;5.93;;;;;;;10.02;66.65;100805.84;5021678;28;20029;-80
2023/05/19 03:09:15;;;;;;;12.83;6.93;;;;;;;10.03;66.89;100803.94;5021346;28;20060;-80
2023/05/19 03:11:41;;;;;;;14.27;6.90;;;;;;;9.98;67.17;100801.94;5021667;28;20980;-80
2023/05/19 03:14:08;;;;;;;14.48;7.45;;;;;;;10.08;66.44;100795.91;5019844;28;20459;-81
2023/05/19 03:16:34;;;;;;;12.38;6.57;;;;;;;9.97;66.97;100799.41;5021216;28;20045;-79
2023/05/19 03:18:59;;;;;;;18.33;8.82;;;;;;;10.00;67.54;100812.59;5020796;28;21077;-80
2023/05/19 03:21:24;;;;;;;18.85;7.05;;;;;;;9.99;66.98;100806.31;5021497;28;20041;-79
2023/05/19 03:23:49;;;;;;;21.80;6.70;;;;;;;9.93;67.29;100808.06;5021820;28;20162;-79
2023/05/19 03:26:15;;;;;;;14.45;6.65;;;;;;;10.03;66.35;100803.94;5020933;28;20259;-80
2023/05/19 03:28:40;;;;;;;11.38;6.43;;;;;;;10.02;66.92;100807.72;5021175;28;20124;-79
2023/05/19 03:31:05;;;;;;;15.67;6.93;;;;;;;9.99;66.65;100813.63;5021261;28;20029;-79
2023/05/19 03:33:30;;;;;;;15.87;8.10;;;;;;;9.98;66.98;100817.44;5021276;28;20271;-79
2023/05/19 03:35:56;;;;;;;13.63;5.93;;;;;;;9.96;66.97;100817.69;5021613;28;20265;-79
2023/05/19 03:38:21;;;;;;;13.77;8.25;;;;;;;9.97;66.81;100815.75;5036062;28;20271;-79
2023/05/19 03:40:47;;;;;;;15.05;7.53;;;;;;;9.91;67.28;100814.81;5021145;28;20045;-79
2023/05/19 03:43:12;;;;;;;19.73;6.63;;;;;;;9.85;67.41;100813.88;5021326;28;20033;-79
2023/05/19 03:45:37;;;;;;;13.23;7.90;;;;;;;9.87;67.54;100806.28;5021501;28;20348;-79
2023/05/19 03:48:03;;;;;;;16.03;7.93;;;;;;;9.83;67.94;100809.72;5021047;28;21220;-79
2023/05/19 03:50:30;;;;;;;14.25;8.23;;;;;;;9.89;67.69;100815.06;5020806;28;20297;-79
2023/05/19 03:52:55;;;;;;;15.90;8.70;;;;;;;9.89;67.69;100809.59;5021476;28;20038;-79
2023/05/19 03:55:21;;;;;;;16.17;7.45;;;;;;;9.89;67.73;100808.78;5020586;28;20076;-79
2023/05/19 03:57:46;;;;;;;14.63;8.05;;;;;;;9.91;67.46;100803.91;5021077;28;20033;-79
2023/05/19 04:00:12;;;;;;;13.05;6.80;;;;;;;9.93;67.57;100808.06;5020769;28;20033;-79
2023/05/19 04:02:37;;;;;;;12.18;6.45;;;;;;;9.91;67.77;100809.38;5022325;28;21240;-79
2023/05/19 04:05:06;;;;;;;13.65;7.32;;;;;;;10.00;67.30;100809.88;5023873;28;20048;-79
2023/05/19 04:07:31;;;;;;;17.00;6.13;;;;;;;9.97;67.50;100811.16;5025037;28;20090;-79
2023/05/19 04:09:56;;;;;;;17.77;7.50;;;;;;;10.01;67.61;100814.22;5024983;28;20037;-79
2023/05/19 04:12:22;;;;;;;15.63;7.38;;;;;;;9.93;67.69;100816.25;5025473;28;20038;-80
2023/05/19 04:14:47;;;;;;;13.05;7.00;;;;;;;9.95;67.63;100813.28;5024899;28;20057;-79
2023/05/19 04:17:13;;;;;;;18.10;7.63;;;;;;;10.10;67.13;100814.72;5025197;28;20045;-79
2023/05/19 04:19:39;;;;;;;14.63;7.93;;;;;;;10.11;67.48;100811.75;5024716;28;20270;-80
2023/05/19 04:22:04;;;;;;;17.20;7.63;;;;;;;10.20;66.78;100819.59;5024799;28;20065;-79
2023/05/19 04:24:29;;;;;;;14.98;7.35;;;;;;;10.19;67.01;100820.66;5024952;28;20037;-79
2023/05/19 04:26:55;;;;;;;17.85;8.02;;;;;;;10.25;67.00;100808.81;5024711;28;20029;-79
2023/05/19 04:29:22;;;;;;;16.67;7.32;;;;;;;10.25;66.97;100811.53;5024031;28;20025;-78
2023/05/19 04:31:48;;;;;;;13.98;7.97;;;;;;;10.23;67.29;100810.97;5025166;28;20034;-79
2023/05/19 04:34:13;;;;;;;13.45;7.95;;;;;;;10.26;67.50;100807.75;5037972;28;20072;-79
2023/05/19 04:36:38;;;;;;;13.20;8.13;;;;;;;10.36;66.89;100812.59;5025094;28;20576;-79
2023/05/19 04:39:06;;;;;;;14.80;7.70;;;;;;;10.25;67.73;100806.09;5024301;28;20042;-78
2023/05/19 04:41:35;;;;;;;12.65;7.40;;;;;;;10.32;67.59;100806.78;5024536;28;20282;-79
2023/05/19 04:44:00;;;;;;;17.65;8.77;;;;;;;10.37;67.25;100812.34;5024832;28;20037;-79
2023/05/19 04:46:26;;;;;;;14.23;7.97;;;;;;;10.35;67.48;100806.31;5024450;28;20391;-78
2023/05/19 04:48:52;;;;;;;18.48;8.23;;;;;;;10.54;66.60;100813.56;5024272;28;20034;-79
2023/05/19 04:51:18;;;;;;;23.98;8.48;;;;;;;10.53;66.78;100817.38;5024295;28;20487;-78
2023/05/19 04:53:44;;;;;;;18.75;8.25;;;;;;;10.65;66.06;100828.25;5024320;28;20463;-78
2023/05/19 04:56:12;;;;;;;14.10;7.72;;;;;;;10.60;66.40;100824.34;5024276;28;20091;-79
2023/05/19 04:58:37;;;;;;;13.98;7.40;;;;;;;10.65;66.34;100820.91;5024218;28;20072;-78
2023/05/19 05:01:03;;;;;;;16.90;7.73;;;;;;;10.68;66.29;100823.16;5024182;28;20121;-78
2023/05/19 05:03:29;;;;;;;17.83;8.43;;;;;;;10.64;66.73;100823.88;5024145;28;20289;-79
2023/05/19 05:05:55;;;;;;;16.98;8.02;;;;;;;10.66;66.81;100828.00;5024297;28;20108;-79
2023/05/19 05:08:22;;;;;;;24.13;9.20;;;;;;;10.68;66.98;100830.53;5023744;28;20043;-79
2023/05/19 05:10:51;;;;;;;19.60;9.75;;;;;;;10.82;66.06;100831.91;5024553;28;20033;-78
2023/05/19 05:13:18;;;;;;;18.90;9.20;;;;;;;10.90;65.77;100835.34;5023832;28;20096;-79
2023/05/19 05:15:43;;;;;;;24.38;11.43;;;;;;;10.91;65.70;100826.91;5023906;28;20179;-79
2023/05/19 05:18:09;;;;;;;26.17;11.60;;;;;;;11.01;65.31;100829.00;5023872;28;20140;-79
2023/05/19 05:20:34;;;;;;;24.98;12.35;;;;;;;10.93;66.27;100826.66;5023863;28;20029;-79
2023/05/19 05:23:00;;;;;;;25.00;10.23;;;;;;;11.08;65.12;100826.97;5024365;28;20037;-80
2023/05/19 05:25:26;;;;;;;25.98;10.50;;;;;;;11.10;65.07;100832.19;5024091;28;20116;-79
2023/05/19 05:27:51;;;;;;;20.80;9.07;;;;;;;11.17;64.21;100832.88;5023611;28;20033;-79
2023/05/19 05:30:17;;;;;;;23.67;8.70;;;;;;;11.21;64.66;100833.22;5023633;28;20099;-78
2023/05/19 05:32:42;;;;;;;16.17;8.20;;;;;;;11.13;65.31;100833.59;5024027;28;20305;-79
2023/05/19 05:35:08;;;;;;;24.05;9.68;;;;;;;11.18;65.28;100829.09;5023757;28;20794;-79
2023/05/19 05:37:33;;;;;;;16.95;8.45;;;;;;;11.28;64.46;100823.00;5024176;28;20121;-79
2023/05/19 05:39:58;;;;;;;15.63;7.97;;;;;;;11.15;65.17;100823.25;5023398;28;20561;-79
2023/05/19 05:42:23;;;;;;;13.63;7.07;;;;;;;11.07;65.81;100825.31;5023457;28;20064;-78
2023/05/19 05:44:49;;;;;;;15.27;7.50;;;;;;;11.15;65.70;100824.09;5023895;28;20963;-79
2023/05/19 05:47:14;;;;;;;16.77;7.32;;;;;;;11.35;64.96;100819.28;5023274;28;20255;-80
2023/05/19 05:49:40;;;;;;;18.77;9.35;;;;;;;11.46;64.88;100821.13;5023159;28;20036;-79
2023/05/19 05:52:08;;;;;;;14.32;7.75;;;;;;;11.48;64.96;100810.78;5023541;28;20029;-80
2023/05/19 05:54:33;;;;;;;14.40;8.23;;;;;;;11.58;64.20;100812.88;5024120;28;20030;-79
2023/05/19 05:56:59;;;;;;;15.95;8.10;;;;;;;11.70;64.31;100811.97;5023415;28;20704;-79
2023/05/19 05:59:24;;;;;;;19.75;8.98;;;;;;;11.82;63.30;100814.66;5022910;28;20037;-80
2023/05/19 06:01:49;;;;;;;14.03;7.63;;;;;;;11.73;63.56;100811.50;5023479;28;20087;-79
2023/05/19 06:04:15;;;;;;;16.07;8.20;;;;;;;11.71;63.69;100809.03;5022671;28;20287;-80
2023/05/19 06:06:40;;;;;;;15.13;8.17;;;;;;;11.76;64.03;100816.44;5023044;28;20270;-79
2023/05/19 06:09:05;;;;;;;17.63;9.15;;;;;;;11.74;63.65;100813.97;5022257;28;20802;-79
2023/05/19 06:11:31;;;;;;;19.90;8.07;;;;;;;11.81;63.57;100821.19;5022930;28;20072;-80
2023/05/19 06:13:56;;;;;;;21.00;6.88;;;;;;;11.62;64.26;100815.94;5023005;28;20395;-79
2023/05/19 06:16:21;;;;;;;11.18;7.18;;;;;;;11.81;63.32;100816.56;5022324;28;20548;-76
2023/05/19 06:18:47;;;;;;;18.23;7.67;;;;;;;11.91;63.33;100818.63;5023223;28;20036;-79
2023/05/19 06:21:12;;;;;;;14.32;7.00;;;;;;;11.92;63.29;100806.59;5023056;28;20283;-79
2023/05/19 06:23:39;;;;;;;18.77;7.25;;;;;;;11.99;62.79;100810.03;5023624;28;20614;-80
2023/05/19 06:26:04;;;;;;;18.05;6.78;;;;;;;12.08;62.52;100809.59;5022387;28;20041;-78
2023/05/19 06:28:30;;;;;;;15.32;7.20;;;;;;;12.22;61.50;100804.66;5022169;28;20037;-80
2023/05/19 06:30:55;;;;;;;13.70;7.53;;;;;;;12.26;61.49;100805.81;5023119;28;20537;-79
2023/05/19 06:33:21;;;;;;;17.60;6.43;;;;;;;12.09;61.67;100803.03;5022420;28;20410;-80
2023/05/19 06:35:46;;;;;;;14.35;7.38;;;;;;;12.08;62.01;100801.41;5023025;28;20274;-79
2023/05/19 06:38:11;;;;;;;14.03;7.30;;;;;;;12.25;61.38;100796.78;5021711;28;20041;-77
2023/05/19 06:40:36;;;;;;;15.17;6.33;;;;;;;12.39;60.70;100793.66;5022402;28;20293;-79
2023/05/19 06:43:02;;;;;;;10.50;5.90;;;;;;;12.36;61.18;100795.03;5021972;28;20362;-79
2023/05/19 06:45:27;;;;;;;20.42;6.35;;;;;;;12.50;60.79;100797.38;5022177;28;20121;-79
2023/05/19 06:47:53;;;;;;;13.32;6.38;;;;;;;12.51;60.52;100799.03;5022011;28;20021;-79
2023/05/19 06:50:18;;;;;;;17.80;6.80;;;;;;;12.48;60.17;100792.19;5021861;28;20034;-80
2023/05/19 06:52:45;;;;;;;32.53;7.72;;;;;;;12.62;59.93;100794.53;5022262;28;20975;-79
2023/05/19 06:55:11;;;;;;;16.25;6.80;;;;;;;12.71;59.82;100795.75;5021974;28;20068;-78
2023/05/19 06:57:36;;;;;;;13.25;6.00;;;;;;;12.76;59.74;100802.34;5022184;28;20076;-78
2023/05/19 07:00:02;;;;;;;12.43;5.97;;;;;;;12.83;58.95;100795.63;5021365;28;20065;-79
2023/05/19 07:02:28;;;;;;;16.38;6.68;;;;;;;12.90;58.81;100789.13;5037211;28;20481;-78
2023/05/19 07:04:53;;;;;;;15.17;5.90;;;;;;;12.91;58.96;100791.63;5021932;28;20107;-79
2023/05/19 07:07:18;;;;;;;11.73;6.57;;;;;;;13.00;58.66;100793.88;5022166;28;20824;-81
2023/05/19 07:09:44;;;;;;;11.80;5.60;;;;;;;13.02;58.68;100792.56;5022622;28;20450;-84
2023/05/19 07:12:09;;;;;;;11.03;6.27;;;;;;;13.05;58.86;100797.53;5021808;28;20270;-85
2023/05/19 07:14:36;;;;;;;11.20;4.93;;;;;;;13.02;58.96;100791.72;5021642;28;20689;-81
2023/05/19 07:17:01;;;;;;;18.63;5.55;;;;;;;13.12;58.89;100791.03;5023034;28;20144;-81
2023/05/19 07:19:26;;;;;;;12.88;4.50;;;;;;;13.19;58.77;100791.66;5022131;28;20135;-81
2023/05/19 07:21:52;;;;;;;12.05;5.68;;;;;;;13.22;58.58;100791.13;5022675;28;20029;-83
2023/05/19 07:24:18;;;;;;;13.25;4.82;;;;;;;13.29;58.25;100790.91;5022435;28;20565;-84
2023/05/19 07:26:43;;;;;;;13.27;3.92;;;;;;;13.35;58.05;100786.31;5022412;28;20033;-83
2023/05/19 07:29:08;;;;;;;14.77;5.13;;;;;;;13.45;57.64;100788.34;5021790;28;20045;-82
2023/05/19 07:31:34;;;;;;;8.13;4.90;;;;;;;13.46;56.91;100784.53;5038035;28;20045;-85
2023/05/19 07:33:59;;;;;;;9.43;3.67;;;;;;;13.49;57.28;100789.47;5022740;28;20273;-85
2023/05/19 07:36:24;;;;;;;11.45;4.22;;;;;;;13.50;56.98;100783.75;5022580;28;20022;-84
2023/05/19 07:38:50;;;;;;;10.13;4.13;;;;;;;13.55;57.24;100782.97;5022439;28;20042;-83
2023/05/19 07:41:15;;;;;;;6.95;3.35;;;;;;;13.58;57.00;100782.47;5021651;28;20309;-82
2023/05/19 07:43:41;;;;;;;9.32;3.33;;;;;;;13.69;56.34;100790.78;5037434;28;20517;-82
2023/05/19 07:46:06;;;;;;;10.05;3.65;;;;;;;13.74;56.77;100785.34;5021847;28;20033;-82
2023/05/19 07:48:31;;;;;;;9.80;4.03;;;;;;;13.78;56.10;100775.50;5021930;28;20120;-84
2023/05/19 07:50:57;;;;;;;10.30;3.38;;;;;;;13.76;56.23;100783.16;5022132;28;20038;-84
2023/05/19 07:53:22;;;;;;;18.58;4.65;;;;;;;13.87;55.65;100786.84;5021575;28;20061;-82
2023/05/19 07:55:48;;;;;;;8.93;4.57;;;;;;;13.89;55.82;100782.72;5021955;28;20055;-82
2023/05/19 07:58:14;;;;;;;13.27;3.92;;;;;;;13.95;56.03;100780.03;5021478;28;20259;-82
2023/05/19 08:00:41;;;;;;;7.90;4.03;;;;;;;13.99;55.94;100781.16;5021983;28;20038;-81
2023/05/19 08:03:09;;;;;;;16.10;4.22;;;;;;;13.98;56.46;100776.75;5020908;28;20060;-76
2023/05/19 08:05:35;;;;;;;8.07;3.65;;;;;;;14.07;55.46;100775.19;5020641;28;20029;-77
2023/05/19 08:08:01;;;;;;;6.65;3.35;;;;;;;14.10;55.29;100774.66;5020387;28;20493;-80
2023/05/19 08:10:27;;;;;;;9.38;3.42;;;;;;;14.18;54.79;100767.00;5020845;28;20060;-76
2023/05/19 08:12:52;;;;;;;10.20;3.67;;;;;;;14.22;55.13;100770.88;5020637;28;20033;-77
2023/05/19 08:15:18;;;;;;;8.77;3.93;;;;;;;14.25;55.14;100767.63;5020064;28;20057;-77
2023/05/19 08:17:43;;;;;;;7.53;3.40;;;;;;;14.31;54.91;100766.56;5020968;28;20756;-77
2023/05/19 08:20:10;;;;;;;8.45;3.28;;;;;;;14.31;54.53;100755.59;5019762;28;20033;-76
2023/05/19 08:22:36;;;;;;;8.98;3.20;;;;;;;14.37;54.65;100759.19;5020610;28;20033;-77
2023/05/19 08:25:04;;;;;;;9.07;3.47;;;;;;;14.46;54.90;100763.06;5019244;28;20040;-76
2023/05/19 08:27:29;;;;;;;8.23;3.15;;;;;;;14.56;54.91;100751.28;5032223;28;20837;-77
2023/05/19 08:29:56;;;;;;;8.48;3.20;;;;;;;14.65;54.32;100750.78;5018401;28;20033;-76
2023/05/19 08:32:21;;;;;;;15.70;3.30;;;;;;;14.68;53.38;100758.50;5020031;28;20537;-76
2023/05/19 08:34:46;;;;;;;9.73;2.88;;;;;;;14.76;53.17;100751.66;5020734;28;20044;-77
2023/05/19 08:37:12;;;;;;;7.80;2.77;;;;;;;14.75;53.09;100752.75;5020582;28;20033;-76
2023/05/19 08:39:37;;;;;;;7.32;2.63;;;;;;;14.85;53.28;100746.53;5020064;28;20275;-78
2023/05/19 08:42:02;;;;;;;8.00;2.80;;;;;;;14.88;52.90;100737.72;5020245;28;20550;-76
2023/05/19 08:44:29;;;;;;;10.70;2.72;;;;;;;14.97;52.97;100744.34;5020623;28;20104;-76
2023/05/19 08:46:55;;;;;;;11.50;3.17;;;;;;;15.04;51.37;100739.44;5020776;28;20033;-76
2023/05/19 08:49:25;;;;;;;5.30;2.38;;;;;;;15.04;50.76;100744.09;5023306;28;20493;-76
2023/05/19 08:52:28;;;;;;;10.45;2.83;;;;;;;15.02;50.92;100736.13;5024478;28;20061;-77
2023/05/19 08:55:26;;;;;;;3.58;2.15;;;;;;;15.14;50.92;100724.06;5024704;28;20037;-78
2023/05/19 08:57:52;;;;;;;8.68;2.72;;;;;;;15.21;50.60;100716.38;5024016;28;20475;-77
2023/05/19 09:00:18;;;;;;;7.53;2.05;;;;;;;15.32;50.46;100732.84;5024269;28;20036;-77
2023/05/19 09:02:44;;;;;;;7.43;2.65;;;;;;;15.29;49.35;100732.31;5024204;28;20672;-77
2023/05/19 09:05:10;;;;;;;8.60;3.53;;;;;;;15.25;49.70;100725.75;5024022;28;20084;-78
2023/05/19 09:07:36;;;;;;;5.93;3.20;;;;;;;15.35;49.60;100722.16;5024082;28;20126;-77
2023/05/19 09:10:02;;;;;;;9.68;2.53;;;;;;;15.46;48.98;100722.97;5023638;28;20041;-77
2023/05/19 09:12:27;;;;;;;13.25;4.03;;;;;;;15.60;47.75;100715.00;5023871;28;20038;-77
2023/05/19 09:14:53;;;;;;;8.17;3.03;;;;;;;15.49;47.99;100716.94;5023543;28;20063;-77
2023/05/19 09:17:18;;;;;;;6.38;2.67;;;;;;;15.44;47.94;100729.88;5024185;28;20849;-78
2023/05/19 09:19:46;;;;;;;10.48;2.78;;;;;;;15.56;48.17;100713.09;5024592;28;20041;-77
2023/05/19 09:22:14;;;;;;;7.15;2.13;;;;;;;15.62;48.16;100703.75;5024458;28;21346;-77
2023/05/19 09:24:40;;;;;;;4.85;2.40;;;;;;;15.80;47.78;100707.03;5023680;28;20061;-78
2023/05/19 09:27:05;;;;;;;5.93;2.45;;;;;;;15.93;46.89;100709.19;5023092;28;20130;-77
2023/05/19 09:29:30;;;;;;;8.52;2.70;;;;;;;16.08;46.81;100696.56;5021106;28;20040;-78
2023/05/19 09:32:00;;;;;;;5.70;1.53;;;;;;;16.21;46.49;100690.44;5022945;28;20038;-77
2023/05/19 09:34:26;;;;;;;6.85;2.40;;;;;;;16.14;45.23;100698.19;5022860;28;20388;-77
2023/05/19 09:36:52;;;;;;;16.83;1.90;;;;;;;16.32;45.08;100682.16;5023131;28;20072;-77
2023/05/19 09:39:22;;;;;;;9.65;2.55;;;;;;;16.35;46.18;100692.63;5023022;28;20056;-78
2023/05/19 09:41:53;;;;;;;5.10;1.92;;;;;;;16.49;46.01;100686.50;5024376;28;20038;-78
2023/05/19 09:44:23;;;;;;;5.35;1.80;;;;;;;16.62;45.35;100680.38;5024240;28;20069;-77
2023/05/19 09:46:52;;;;;;;4.63;1.80;;;;;;;16.71;43.97;100677.84;5024164;28;20513;-79
2023/05/19 09:49:28;;;;;;;3.40;1.75;;;;;;;16.78;44.44;100683.06;5023650;28;20049;-78
2023/05/19 09:51:57;;;;;;;5.72;2.33;;;;;;;16.85;43.90;100678.03;5023877;28;20030;-77
2023/05/19 09:54:24;;;;;;;5.25;2.42;;;;;;;16.86;44.35;100673.38;5023961;28;20148;-77
2023/05/19 09:57:00;;;;;;;14.30;1.98;;;;;;;16.90;42.88;100674.44;5024169;28;20804;-78
2023/05/19 09:59:26;;;;;;;6.88;2.20;;;;;;;17.02;44.15;100676.84;5022077;28;20124;-77
2023/05/19 10:01:57;;;;;;;4.28;1.92;;;;;;;17.09;42.58;100668.22;5024033;28;20029;-77
2023/05/19 10:04:25;;;;;;;4.60;2.15;;;;;;;17.23;42.88;100669.25;5023705;28;20038;-78
2023/05/19 10:06:52;;;;;;;6.93;2.65;;;;;;;17.28;43.68;100665.66;5024081;28;20025;-77
2023/05/19 10:09:26;;;;;;;4.45;1.80;;;;;;;17.37;42.96;100658.38;5023075;28;20641;-77
2023/05/19 10:11:52;;;;;;;8.32;2.05;;;;;;;17.46;42.88;100657.78;5024026;28;20064;-77
2023/05/19 10:14:22;;;;;;;4.63;2.33;;;;;;;17.54;42.86;100665.41;5023419;28;20184;-78
2023/05/19 10:16:53;;;;;;;6.20;2.30;;;;;;;17.53;42.07;100655.50;5022237;28;20124;-78
2023/05/19 10:19:26;;;;;;;7.53;2.67;;;;;;;17.59;42.09;100668.09;5022119;28;20037;-77
2023/05/19 10:21:52;;;;;;;5.72;2.25;;;;;;;17.45;43.49;100669.91;5022426;28;20033;-77
2023/05/19 10:24:18;;;;;;;7.63;3.15;;;;;;;17.55;43.25;100667.06;5022201;28;20045;-77
2023/05/19 10:26:50;;;;;;;7.32;2.45;;;;;;;17.74;43.42;100666.31;5022367;28;20040;-77
2023/05/19 10:29:21;;;;;;;6.32;2.53;;;;;;;17.81;43.02;100660.47;5022030;28;20055;-77
2023/05/19 10:31:50;;;;;;;6.72;2.55;;;;;;;17.93;43.24;100660.88;5022768;28;20042;-77
2023/05/19 10:34:20;;;;;;;13.52;2.88;;;;;;;18.02;42.41;100660.25;5021885;28;20079;-78
2023/05/19 10:36:57;;;;;;;6.43;2.13;;;;;;;18.06;42.55;100653.03;5022578;28;20033;-78
2023/05/19 10:39:34;;;;;;;9.07;2.00;;;;;;;18.12;42.37;100656.53;5021379;28;20517;-77
2023/05/19 10:42:18;;;;;;;7.28;2.45;;;;;;;18.21;42.25;100654.78;5022139;28;20143;-78
2023/05/19 10:45:05;;;;;;;9.07;2.15;;;;;;;18.19;40.88;100646.81;5020591;28;20083;-77
2023/05/19 10:47:32;;;;;;;20.85;3.63;;;;;;;18.24;42.16;100654.22;5022236;28;20116;-78
2023/05/19 10:49:59;;;;;;;7.55;2.47;;;;;;;18.27;41.75;100648.09;5021727;28;20037;-77
2023/05/19 10:52:27;;;;;;;10.63;2.42;;;;;;;18.36;42.09;100644.69;5021916;28;20033;-77
2023/05/19 10:54:53;;;;;;;8.90;2.10;;;;;;;18.43;40.71;100636.84;5021475;28;20033;-77
2023/05/19 10:57:30;;;;;;;9.98;2.75;;;;;;;18.43;41.43;100639.59;5020627;28;20041;-78
2023/05/19 10:59:56;;;;;;;8.68;2.30;;;;;;;18.44;41.56;100635.75;5020930;28;20127;-77
2023/05/19 11:02:39;;;;;;;7.40;2.47;;;;;;;18.54;41.20;100635.59;5020651;28;20446;-78
2023/05/19 11:05:13;;;;;;;4.32;2.22;;;;;;;18.55;40.81;100639.16;5021029;28;20037;-78
2023/05/19 11:07:41;;;;;;;9.63;2.28;;;;;;;18.62;41.94;100638.81;5021025;28;20124;-77
2023/05/19 11:10:07;;;;;;;9.95;2.92;;;;;;;18.69;40.12;100636.50;5020167;28;20157;-77
2023/05/19 11:12:41;;;;;;;4.32;1.75;;;;;;;18.74;40.06;100644.69;5021416;28;20037;-77
2023/05/19 11:15:10;;;;;;;5.38;2.40;;;;;;;18.87;41.86;100639.56;4984817;28;1043062;-77
2023/05/19 11:17:35;;;;;;;7.00;2.35;;;;;;;19.01;41.13;100637.66;5021880;28;20037;-77
2023/05/19 11:20:00;;;;;;;6.43;2.00;;;;;;;19.07;40.68;100643.94;5021052;28;21199;-77